createdAt,value
2022-12-19T00:00:03.819Z,1036.71
2022-12-19T00:16:03.899Z,1036.75
2022-12-19T00:31:03.747Z,1036.41
2022-12-19T00:46:03.822Z,1036.75
2022-12-19T01:00:03.733Z,1036.51
2022-12-19T01:16:03.867Z,1036.27
2022-12-19T01:31:03.763Z,1036.34
2022-12-19T01:46:03.929Z,1036
2022-12-19T02:00:03.723Z,1035.9
2022-12-19T02:16:03.615Z,1036.04
2022-12-19T02:31:07.320Z,1035.87
2022-12-19T02:46:03.821Z,1035.7
2022-12-19T03:00:03.801Z,1035.59
2022-12-19T03:16:03.755Z,1035.63
2022-12-19T03:31:03.896Z,1035.7
2022-12-19T03:46:03.872Z,1035.63
2022-12-19T04:00:03.871Z,1035.46
2022-12-19T04:16:03.904Z,1035.46
2022-12-19T04:31:03.965Z,1035.43
2022-12-19T04:46:03.914Z,1035.49
2022-12-19T05:00:03.936Z,1035.43
2022-12-19T05:16:03.937Z,1035.32
2022-12-19T05:31:03.872Z,1035.39
2022-12-19T05:46:03.596Z,1035.46
2022-12-19T06:00:03.876Z,1035.53
2022-12-19T06:16:03.866Z,1035.43
2022-12-19T06:31:03.867Z,1035.59
2022-12-19T06:46:03.862Z,1035.56
2022-12-19T07:00:03.863Z,1035.66
2022-12-19T07:16:03.586Z,1035.73
2022-12-19T07:31:03.890Z,1035.7
2022-12-19T07:46:04.418Z,1035.73
2022-12-19T08:00:03.842Z,1035.87
2022-12-19T08:16:03.821Z,1035.7
2022-12-19T08:31:03.878Z,1035.83
2022-12-19T08:46:03.871Z,1035.87
2022-12-19T09:00:03.860Z,1035.8
2022-12-19T09:16:03.586Z,1035.83
2022-12-19T09:31:03.629Z,1035.63
2022-12-19T09:46:03.611Z,1035.43
2022-12-19T10:00:03.627Z,1035.29
2022-12-19T10:16:03.634Z,1035.19
2022-12-19T10:31:12.618Z,1035.05
2022-12-19T10:46:03.739Z,1035.09
2022-12-19T11:00:03.729Z,1035.02
2022-12-19T11:21:33.386Z,1034.95
2022-12-19T11:46:03.606Z,1034.48
2022-12-19T12:00:04.983Z,1034.41
2022-12-19T12:28:16.429Z,1034.31
2022-12-19T12:35:54.206Z,1034.07
2022-12-19T12:46:03.729Z,1033.94
2022-12-19T13:00:03.603Z,1033.83
2022-12-19T13:16:03.627Z,1033.9
2022-12-19T13:31:18.619Z,1033.83
2022-12-19T13:46:03.652Z,1033.77
2022-12-19T14:00:03.635Z,1033.77
2022-12-19T14:16:03.670Z,1033.6
2022-12-19T14:31:03.666Z,1033.63
2022-12-19T14:54:22.567Z,1033.77
2022-12-19T15:00:03.630Z,1033.9
2022-12-19T15:16:03.846Z,1033.87
2022-12-19T15:31:03.933Z,1033.87
2022-12-19T15:46:03.655Z,1033.73
2022-12-19T16:00:03.964Z,1033.6
2022-12-19T16:16:06.523Z,1033.53
2022-12-19T16:31:03.943Z,1033.6
2022-12-19T16:46:03.950Z,1033.53
2022-12-19T17:00:03.923Z,1033.5
2022-12-19T17:16:03.989Z,1033.43
2022-12-19T17:31:03.823Z,1033.46
2022-12-19T17:46:04.131Z,1033.36
2022-12-19T18:00:03.838Z,1033.29
2022-12-19T18:16:01.007Z,1033.22
2022-12-19T18:31:04.101Z,1033.33
2022-12-19T18:46:03.966Z,1033.26
2022-12-19T19:00:03.735Z,1033.09
2022-12-19T19:16:03.970Z,1033.22
2022-12-19T19:31:04.052Z,1032.99
2022-12-19T19:46:03.712Z,1032.89
2022-12-19T20:00:03.962Z,1033.06
2022-12-19T20:16:03.969Z,1033.06
2022-12-19T20:31:04.019Z,1032.95
2022-12-19T20:46:04.160Z,1033.06
2022-12-19T21:00:03.970Z,1032.89
2022-12-19T21:16:03.989Z,1032.78
2022-12-19T21:31:04.048Z,1032.78
2022-12-19T21:46:03.977Z,1032.68
2022-12-19T22:00:04.000Z,1032.58
2022-12-19T22:16:03.858Z,1032.65
2022-12-19T22:31:04.095Z,1032.55
2022-12-19T22:46:04.830Z,1032.45
2022-12-19T23:00:04.049Z,1032.34
2022-12-19T23:16:04.105Z,1032.17
2022-12-19T23:31:04.007Z,1032.11
2022-12-19T23:46:04.075Z,1031.94
